Terminal Aerodrome Forecast
Issued by NWS

Home | Current Version | Previous Version | Text Only | Print | Product List | Glossary On
Versions: 1 2 3 4 5 6 7 8 9 10 11 12 13 14 15 16 17
000
FTUS44 KOHX 051134
TAFCKV
TAF
KCKV 051134Z 0512/0612 06003KT P6SM VCSH SCT150
     FM051400 08003KT P6SM VCTS BKN050CB BKN100
     FM051500 09005KT 5SM -TSRA BR BKN040CB OVC080
     FM052000 12004KT P6SM VCSH BKN040 OVC080
     FM060600 16004KT 5SM -SHRA BR VCTS BKN035CB OVC070=

USA.gov is the U.S. government's official web portal to all federal, state and local government web resources and services.